sensor_id;sensor_type;location;lat;lon;timestamp;P1;durP1;ratioP1;P2;durP2;ratioP2
26656;SDS011;14279;50.010;8.260;2023-02-15T00:01:06;75.43;;;31.33;;
26656;SDS011;14279;50.010;8.260;2023-02-15T00:03:36;82.43;;;33.67;;
26656;SDS011;14279;50.010;8.260;2023-02-15T00:06:01;89.33;;;34.17;;
26656;SDS011;14279;50.010;8.260;2023-02-15T00:08:27;87.67;;;36.40;;
26656;SDS011;14279;50.010;8.260;2023-02-15T00:10:52;87.00;;;33.77;;
26656;SDS011;14279;50.010;8.260;2023-02-15T00:13:18;82.57;;;31.97;;
26656;SDS011;14279;50.010;8.260;2023-02-15T00:15:43;90.90;;;32.17;;
26656;SDS011;14279;50.010;8.260;2023-02-15T00:18:08;80.73;;;33.00;;
26656;SDS011;14279;50.010;8.260;2023-02-15T00:20:34;83.30;;;33.87;;
26656;SDS011;14279;50.010;8.260;2023-02-15T00:22:59;78.70;;;32.03;;
26656;SDS011;14279;50.010;8.260;2023-02-15T00:25:25;77.03;;;31.17;;
26656;SDS011;14279;50.010;8.260;2023-02-15T00:27:50;83.90;;;33.23;;
26656;SDS011;14279;50.010;8.260;2023-02-15T00:30:15;77.73;;;32.07;;
26656;SDS011;14279;50.010;8.260;2023-02-15T00:32:41;77.57;;;32.90;;
26656;SDS011;14279;50.010;8.260;2023-02-15T00:35:06;85.03;;;32.90;;
26656;SDS011;14279;50.010;8.260;2023-02-15T00:37:32;85.53;;;32.00;;
26656;SDS011;14279;50.010;8.260;2023-02-15T00:39:57;91.10;;;34.30;;
26656;SDS011;14279;50.010;8.260;2023-02-15T00:42:22;83.77;;;34.40;;
26656;SDS011;14279;50.010;8.260;2023-02-15T00:44:48;79.73;;;31.03;;
26656;SDS011;14279;50.010;8.260;2023-02-15T00:47:13;80.87;;;32.30;;
26656;SDS011;14279;50.010;8.260;2023-02-15T00:49:38;73.70;;;32.73;;
26656;SDS011;14279;50.010;8.260;2023-02-15T00:52:03;92.87;;;34.97;;
26656;SDS011;14279;50.010;8.260;2023-02-15T00:54:29;101.83;;;33.50;;
26656;SDS011;14279;50.010;8.260;2023-02-15T00:56:54;80.87;;;33.80;;
26656;SDS011;14279;50.010;8.260;2023-02-15T00:59:19;88.90;;;32.23;;
26656;SDS011;14279;50.010;8.260;2023-02-15T01:01:44;91.80;;;34.10;;
26656;SDS011;14279;50.010;8.260;2023-02-15T01:04:10;88.43;;;33.93;;
26656;SDS011;14279;50.010;8.260;2023-02-15T01:06:35;84.27;;;33.90;;
26656;SDS011;14279;50.010;8.260;2023-02-15T01:09:01;82.90;;;32.27;;
26656;SDS011;14279;50.010;8.260;2023-02-15T01:11:26;101.53;;;34.40;;
26656;SDS011;14279;50.010;8.260;2023-02-15T01:13:52;101.13;;;35.50;;
26656;SDS011;14279;50.010;8.260;2023-02-15T01:16:23;108.13;;;36.83;;
26656;SDS011;14279;50.010;8.260;2023-02-15T01:18:50;93.47;;;35.37;;
26656;SDS011;14279;50.010;8.260;2023-02-15T01:21:16;105.67;;;33.93;;
26656;SDS011;14279;50.010;8.260;2023-02-15T01:23:44;101.17;;;34.20;;
26656;SDS011;14279;50.010;8.260;2023-02-15T01:26:10;92.23;;;32.87;;
26656;SDS011;14279;50.010;8.260;2023-02-15T01:28:35;107.43;;;34.77;;
26656;SDS011;14279;50.010;8.260;2023-02-15T01:31:09;89.83;;;33.93;;
26656;SDS011;14279;50.010;8.260;2023-02-15T01:33:36;101.53;;;36.13;;
26656;SDS011;14279;50.010;8.260;2023-02-15T01:36:02;95.20;;;37.50;;
26656;SDS011;14279;50.010;8.260;2023-02-15T01:38:28;99.03;;;36.00;;
26656;SDS011;14279;50.010;8.260;2023-02-15T01:40:53;92.70;;;34.60;;
26656;SDS011;14279;50.010;8.260;2023-02-15T01:43:40;96.47;;;34.37;;
26656;SDS011;14279;50.010;8.260;2023-02-15T01:46:07;79.27;;;30.23;;
26656;SDS011;14279;50.010;8.260;2023-02-15T01:48:34;86.47;;;34.40;;
26656;SDS011;14279;50.010;8.260;2023-02-15T01:51:16;89.93;;;33.20;;
26656;SDS011;14279;50.010;8.260;2023-02-15T01:53:47;86.73;;;34.77;;
26656;SDS011;14279;50.010;8.260;2023-02-15T01:56:21;95.33;;;32.93;;
26656;SDS011;14279;50.010;8.260;2023-02-15T01:58:50;79.67;;;33.43;;
26656;SDS011;14279;50.010;8.260;2023-02-15T02:01:18;95.77;;;33.30;;
26656;SDS011;14279;50.010;8.260;2023-02-15T02:03:58;87.37;;;35.57;;
26656;SDS011;14279;50.010;8.260;2023-02-15T02:06:32;94.03;;;33.53;;
26656;SDS011;14279;50.010;8.260;2023-02-15T02:08:58;80.83;;;33.10;;
26656;SDS011;14279;50.010;8.260;2023-02-15T02:11:23;97.13;;;33.47;;
26656;SDS011;14279;50.010;8.260;2023-02-15T02:13:49;89.50;;;34.13;;
26656;SDS011;14279;50.010;8.260;2023-02-15T02:33:13;89.80;;;35.43;;
26656;SDS011;14279;50.010;8.260;2023-02-15T02:38:58;97.87;;;36.27;;
26656;SDS011;14279;50.010;8.260;2023-02-15T02:41:52;87.30;;;31.40;;
26656;SDS011;14279;50.010;8.260;2023-02-15T02:44:26;98.00;;;36.37;;
26656;SDS011;14279;50.010;8.260;2023-02-15T02:47:03;79.67;;;34.07;;
26656;SDS011;14279;50.010;8.260;2023-02-15T02:49:32;83.77;;;33.73;;
26656;SDS011;14279;50.010;8.260;2023-02-15T02:52:00;86.43;;;35.00;;
26656;SDS011;14279;50.010;8.260;2023-02-15T02:54:27;101.03;;;36.80;;
26656;SDS011;14279;50.010;8.260;2023-02-15T02:56:53;79.90;;;35.57;;
26656;SDS011;14279;50.010;8.260;2023-02-15T02:59:26;86.07;;;34.77;;
26656;SDS011;14279;50.010;8.260;2023-02-15T03:02:08;79.33;;;33.43;;
26656;SDS011;14279;50.010;8.260;2023-02-15T03:04:39;83.83;;;33.60;;
26656;SDS011;14279;50.010;8.260;2023-02-15T03:07:11;82.07;;;32.67;;
26656;SDS011;14279;50.010;8.260;2023-02-15T03:09:43;75.97;;;32.83;;
26656;SDS011;14279;50.010;8.260;2023-02-15T03:12:14;80.87;;;33.50;;
26656;SDS011;14279;50.010;8.260;2023-02-15T03:14:44;78.00;;;32.67;;
26656;SDS011;14279;50.010;8.260;2023-02-15T03:17:13;85.43;;;35.13;;
26656;SDS011;14279;50.010;8.260;2023-02-15T03:19:41;83.40;;;33.30;;
26656;SDS011;14279;50.010;8.260;2023-02-15T03:22:14;73.70;;;32.10;;
26656;SDS011;14279;50.010;8.260;2023-02-15T03:24:47;69.00;;;31.53;;
26656;SDS011;14279;50.010;8.260;2023-02-15T03:27:19;70.87;;;33.93;;
26656;SDS011;14279;50.010;8.260;2023-02-15T03:29:53;67.87;;;30.77;;
26656;SDS011;14279;50.010;8.260;2023-02-15T03:32:22;62.17;;;28.97;;
26656;SDS011;14279;50.010;8.260;2023-02-15T03:34:50;65.97;;;30.47;;
26656;SDS011;14279;50.010;8.260;2023-02-15T03:37:25;73.63;;;30.93;;
26656;SDS011;14279;50.010;8.260;2023-02-15T03:40:01;74.70;;;33.70;;
26656;SDS011;14279;50.010;8.260;2023-02-15T03:42:48;66.87;;;30.60;;
26656;SDS011;14279;50.010;8.260;2023-02-15T03:45:22;73.30;;;32.50;;
26656;SDS011;14279;50.010;8.260;2023-02-15T03:47:53;71.43;;;30.70;;
26656;SDS011;14279;50.010;8.260;2023-02-15T03:50:22;64.23;;;31.20;;
26656;SDS011;14279;50.010;8.260;2023-02-15T03:53:13;63.83;;;29.03;;
26656;SDS011;14279;50.010;8.260;2023-02-15T03:55:41;64.87;;;31.73;;
26656;SDS011;14279;50.010;8.260;2023-02-15T03:58:06;75.10;;;31.80;;
26656;SDS011;14279;50.010;8.260;2023-02-15T04:00:55;63.17;;;30.90;;
26656;SDS011;14279;50.010;8.260;2023-02-15T04:03:43;72.07;;;31.60;;
26656;SDS011;14279;50.010;8.260;2023-02-15T04:06:14;81.83;;;32.90;;
26656;SDS011;14279;50.010;8.260;2023-02-15T04:08:39;69.13;;;32.10;;
26656;SDS011;14279;50.010;8.260;2023-02-15T04:11:23;79.77;;;32.80;;
26656;SDS011;14279;50.010;8.260;2023-02-15T04:13:48;65.17;;;30.20;;
26656;SDS011;14279;50.010;8.260;2023-02-15T04:16:21;72.17;;;31.93;;
26656;SDS011;14279;50.010;8.260;2023-02-15T04:18:47;70.30;;;30.27;;
26656;SDS011;14279;50.010;8.260;2023-02-15T04:21:31;70.53;;;30.67;;
26656;SDS011;14279;50.010;8.260;2023-02-15T04:24:15;68.23;;;32.00;;
26656;SDS011;14279;50.010;8.260;2023-02-15T04:26:59;75.00;;;31.90;;
26656;SDS011;14279;50.010;8.260;2023-02-15T04:29:25;66.07;;;29.47;;
26656;SDS011;14279;50.010;8.260;2023-02-15T04:31:52;73.27;;;32.53;;
26656;SDS011;14279;50.010;8.260;2023-02-15T04:34:18;74.60;;;32.77;;
26656;SDS011;14279;50.010;8.260;2023-02-15T04:36:43;77.50;;;33.50;;
26656;SDS011;14279;50.010;8.260;2023-02-15T04:39:11;67.80;;;31.60;;
26656;SDS011;14279;50.010;8.260;2023-02-15T04:41:38;70.80;;;30.70;;
26656;SDS011;14279;50.010;8.260;2023-02-15T04:44:03;70.40;;;33.13;;
26656;SDS011;14279;50.010;8.260;2023-02-15T04:46:28;73.50;;;33.90;;
26656;SDS011;14279;50.010;8.260;2023-02-15T04:48:55;72.00;;;33.40;;
26656;SDS011;14279;50.010;8.260;2023-02-15T04:51:21;69.60;;;32.03;;
26656;SDS011;14279;50.010;8.260;2023-02-15T04:53:46;70.03;;;30.30;;
26656;SDS011;14279;50.010;8.260;2023-02-15T04:56:12;70.40;;;31.73;;
26656;SDS011;14279;50.010;8.260;2023-02-15T04:58:37;69.80;;;31.90;;
26656;SDS011;14279;50.010;8.260;2023-02-15T05:01:05;76.50;;;33.10;;
26656;SDS011;14279;50.010;8.260;2023-02-15T05:03:31;67.40;;;30.93;;
26656;SDS011;14279;50.010;8.260;2023-02-15T05:05:56;74.23;;;30.80;;
26656;SDS011;14279;50.010;8.260;2023-02-15T05:08:21;73.47;;;32.70;;
26656;SDS011;14279;50.010;8.260;2023-02-15T05:10:49;62.23;;;30.20;;
26656;SDS011;14279;50.010;8.260;2023-02-15T05:13:15;66.07;;;30.53;;
26656;SDS011;14279;50.010;8.260;2023-02-15T05:15:40;61.43;;;30.37;;
26656;SDS011;14279;50.010;8.260;2023-02-15T05:18:05;69.40;;;30.43;;
26656;SDS011;14279;50.010;8.260;2023-02-15T05:20:32;71.67;;;31.43;;
26656;SDS011;14279;50.010;8.260;2023-02-15T05:22:58;72.53;;;31.17;;
26656;SDS011;14279;50.010;8.260;2023-02-15T05:25:23;79.60;;;31.30;;
26656;SDS011;14279;50.010;8.260;2023-02-15T05:28:08;65.30;;;28.90;;
26656;SDS011;14279;50.010;8.260;2023-02-15T05:30:44;71.03;;;30.13;;
26656;SDS011;14279;50.010;8.260;2023-02-15T05:33:10;70.80;;;30.20;;
26656;SDS011;14279;50.010;8.260;2023-02-15T05:35:35;64.93;;;31.00;;
26656;SDS011;14279;50.010;8.260;2023-02-15T05:38:00;73.67;;;31.90;;
26656;SDS011;14279;50.010;8.260;2023-02-15T05:40:26;64.87;;;31.00;;
26656;SDS011;14279;50.010;8.260;2023-02-15T05:42:51;71.17;;;29.50;;
26656;SDS011;14279;50.010;8.260;2023-02-15T05:45:17;64.60;;;29.80;;
26656;SDS011;14279;50.010;8.260;2023-02-15T05:47:42;71.70;;;30.17;;
26656;SDS011;14279;50.010;8.260;2023-02-15T05:50:08;66.13;;;29.53;;
26656;SDS011;14279;50.010;8.260;2023-02-15T05:52:34;71.23;;;28.50;;
26656;SDS011;14279;50.010;8.260;2023-02-15T05:55:00;61.50;;;30.10;;
26656;SDS011;14279;50.010;8.260;2023-02-15T05:57:27;62.13;;;26.97;;
26656;SDS011;14279;50.010;8.260;2023-02-15T05:59:52;80.50;;;28.77;;
26656;SDS011;14279;50.010;8.260;2023-02-15T06:02:20;91.77;;;28.50;;
26656;SDS011;14279;50.010;8.260;2023-02-15T06:04:46;71.53;;;28.57;;
26656;SDS011;14279;50.010;8.260;2023-02-15T06:07:11;61.50;;;27.77;;
26656;SDS011;14279;50.010;8.260;2023-02-15T06:09:36;72.03;;;28.20;;
26656;SDS011;14279;50.010;8.260;2023-02-15T06:12:01;62.10;;;27.70;;
26656;SDS011;14279;50.010;8.260;2023-02-15T06:14:27;57.57;;;26.33;;
26656;SDS011;14279;50.010;8.260;2023-02-15T06:16:52;56.67;;;26.70;;
26656;SDS011;14279;50.010;8.260;2023-02-15T06:19:17;60.47;;;27.03;;
26656;SDS011;14279;50.010;8.260;2023-02-15T06:21:43;60.50;;;25.53;;
26656;SDS011;14279;50.010;8.260;2023-02-15T06:24:09;53.23;;;24.97;;
26656;SDS011;14279;50.010;8.260;2023-02-15T06:26:34;56.13;;;26.93;;
26656;SDS011;14279;50.010;8.260;2023-02-15T06:28:59;54.63;;;24.27;;
26656;SDS011;14279;50.010;8.260;2023-02-15T06:31:24;55.63;;;25.60;;
26656;SDS011;14279;50.010;8.260;2023-02-15T06:33:50;53.73;;;24.27;;
26656;SDS011;14279;50.010;8.260;2023-02-15T06:36:15;51.80;;;24.20;;
26656;SDS011;14279;50.010;8.260;2023-02-15T06:38:40;57.77;;;25.30;;
26656;SDS011;14279;50.010;8.260;2023-02-15T06:41:06;57.83;;;24.57;;
26656;SDS011;14279;50.010;8.260;2023-02-15T06:43:31;49.13;;;23.33;;
26656;SDS011;14279;50.010;8.260;2023-02-15T06:45:57;45.10;;;23.33;;
26656;SDS011;14279;50.010;8.260;2023-02-15T06:48:23;55.33;;;24.87;;
26656;SDS011;14279;50.010;8.260;2023-02-15T06:50:48;43.50;;;22.40;;
26656;SDS011;14279;50.010;8.260;2023-02-15T06:53:14;48.07;;;22.13;;
26656;SDS011;14279;50.010;8.260;2023-02-15T06:55:39;50.40;;;21.23;;
26656;SDS011;14279;50.010;8.260;2023-02-15T06:58:04;44.47;;;22.10;;
26656;SDS011;14279;50.010;8.260;2023-02-15T07:00:29;48.93;;;20.93;;
26656;SDS011;14279;50.010;8.260;2023-02-15T07:02:55;51.07;;;22.30;;
26656;SDS011;14279;50.010;8.260;2023-02-15T07:05:23;39.67;;;19.70;;
26656;SDS011;14279;50.010;8.260;2023-02-15T07:07:48;37.70;;;19.93;;
26656;SDS011;14279;50.010;8.260;2023-02-15T07:10:14;37.30;;;20.07;;
26656;SDS011;14279;50.010;8.260;2023-02-15T07:12:39;34.80;;;18.73;;
26656;SDS011;14279;50.010;8.260;2023-02-15T07:15:08;37.53;;;19.10;;
26656;SDS011;14279;50.010;8.260;2023-02-15T07:17:35;36.67;;;19.57;;
26656;SDS011;14279;50.010;8.260;2023-02-15T07:20:04;35.10;;;18.97;;
26656;SDS011;14279;50.010;8.260;2023-02-15T07:22:32;34.53;;;18.17;;
26656;SDS011;14279;50.010;8.260;2023-02-15T07:24:59;36.60;;;18.57;;
26656;SDS011;14279;50.010;8.260;2023-02-15T07:27:24;30.90;;;18.10;;
26656;SDS011;14279;50.010;8.260;2023-02-15T07:29:49;36.20;;;20.10;;
26656;SDS011;14279;50.010;8.260;2023-02-15T07:32:15;39.10;;;19.60;;
26656;SDS011;14279;50.010;8.260;2023-02-15T07:34:40;38.00;;;19.90;;
26656;SDS011;14279;50.010;8.260;2023-02-15T07:37:05;38.23;;;19.60;;
26656;SDS011;14279;50.010;8.260;2023-02-15T07:39:31;36.10;;;19.20;;
26656;SDS011;14279;50.010;8.260;2023-02-15T07:41:56;39.20;;;18.67;;
26656;SDS011;14279;50.010;8.260;2023-02-15T07:44:21;29.87;;;16.70;;
26656;SDS011;14279;50.010;8.260;2023-02-15T07:46:46;32.20;;;17.70;;
26656;SDS011;14279;50.010;8.260;2023-02-15T07:49:12;28.93;;;16.43;;
26656;SDS011;14279;50.010;8.260;2023-02-15T07:51:37;29.20;;;16.83;;
26656;SDS011;14279;50.010;8.260;2023-02-15T07:54:02;29.97;;;16.40;;
26656;SDS011;14279;50.010;8.260;2023-02-15T07:56:27;30.40;;;17.70;;
26656;SDS011;14279;50.010;8.260;2023-02-15T07:58:53;35.50;;;18.27;;
26656;SDS011;14279;50.010;8.260;2023-02-15T08:01:22;34.63;;;18.17;;
26656;SDS011;14279;50.010;8.260;2023-02-15T08:03:49;26.37;;;16.47;;
26656;SDS011;14279;50.010;8.260;2023-02-15T08:06:15;31.03;;;16.10;;
26656;SDS011;14279;50.010;8.260;2023-02-15T08:08:40;29.30;;;15.80;;
26656;SDS011;14279;50.010;8.260;2023-02-15T08:11:09;21.83;;;13.40;;
26656;SDS011;14279;50.010;8.260;2023-02-15T08:14:06;26.10;;;14.17;;
26656;SDS011;14279;50.010;8.260;2023-02-15T08:16:35;23.23;;;14.00;;
26656;SDS011;14279;50.010;8.260;2023-02-15T08:19:03;27.00;;;15.27;;
26656;SDS011;14279;50.010;8.260;2023-02-15T08:21:34;24.43;;;13.50;;
26656;SDS011;14279;50.010;8.260;2023-02-15T08:24:02;26.77;;;15.43;;
26656;SDS011;14279;50.010;8.260;2023-02-15T08:26:28;30.70;;;15.00;;
26656;SDS011;14279;50.010;8.260;2023-02-15T08:28:54;23.80;;;13.37;;
26656;SDS011;14279;50.010;8.260;2023-02-15T08:31:20;27.10;;;15.20;;
26656;SDS011;14279;50.010;8.260;2023-02-15T08:33:47;24.87;;;14.77;;
26656;SDS011;14279;50.010;8.260;2023-02-15T08:36:16;22.03;;;13.00;;
26656;SDS011;14279;50.010;8.260;2023-02-15T08:38:45;24.80;;;13.57;;
26656;SDS011;14279;50.010;8.260;2023-02-15T08:41:22;25.80;;;14.10;;
26656;SDS011;14279;50.010;8.260;2023-02-15T08:43:52;29.90;;;15.53;;
26656;SDS011;14279;50.010;8.260;2023-02-15T08:46:20;25.10;;;14.10;;
26656;SDS011;14279;50.010;8.260;2023-02-15T08:48:48;27.07;;;15.30;;
26656;SDS011;14279;50.010;8.260;2023-02-15T08:51:14;28.67;;;16.23;;
26656;SDS011;14279;50.010;8.260;2023-02-15T08:53:45;28.13;;;14.97;;
26656;SDS011;14279;50.010;8.260;2023-02-15T08:56:14;32.17;;;15.80;;
26656;SDS011;14279;50.010;8.260;2023-02-15T08:58:40;25.30;;;15.10;;
26656;SDS011;14279;50.010;8.260;2023-02-15T09:01:16;31.47;;;16.00;;
26656;SDS011;14279;50.010;8.260;2023-02-15T09:03:43;34.70;;;16.40;;
26656;SDS011;14279;50.010;8.260;2023-02-15T09:06:10;29.47;;;15.77;;
26656;SDS011;14279;50.010;8.260;2023-02-15T09:08:35;31.23;;;16.07;;
26656;SDS011;14279;50.010;8.260;2023-02-15T09:13:33;30.50;;;16.80;;
26656;SDS011;14279;50.010;8.260;2023-02-15T09:16:02;32.70;;;16.37;;
26656;SDS011;14279;50.010;8.260;2023-02-15T09:18:30;31.77;;;17.57;;
26656;SDS011;14279;50.010;8.260;2023-02-15T09:20:56;26.07;;;15.57;;
26656;SDS011;14279;50.010;8.260;2023-02-15T09:23:28;33.83;;;17.67;;
26656;SDS011;14279;50.010;8.260;2023-02-15T09:25:53;34.60;;;16.63;;
26656;SDS011;14279;50.010;8.260;2023-02-15T09:28:18;34.23;;;17.30;;
26656;SDS011;14279;50.010;8.260;2023-02-15T09:30:43;32.47;;;17.03;;
26656;SDS011;14279;50.010;8.260;2023-02-15T09:33:08;33.70;;;18.17;;
26656;SDS011;14279;50.010;8.260;2023-02-15T09:35:34;31.40;;;17.00;;
26656;SDS011;14279;50.010;8.260;2023-02-15T09:37:59;29.40;;;16.70;;
26656;SDS011;14279;50.010;8.260;2023-02-15T09:40:24;30.60;;;15.27;;
26656;SDS011;14279;50.010;8.260;2023-02-15T09:45:54;32.27;;;16.57;;
26656;SDS011;14279;50.010;8.260;2023-02-15T09:48:39;38.27;;;17.00;;
26656;SDS011;14279;50.010;8.260;2023-02-15T09:51:18;28.17;;;15.60;;
26656;SDS011;14279;50.010;8.260;2023-02-15T09:53:59;30.70;;;16.50;;
26656;SDS011;14279;50.010;8.260;2023-02-15T09:56:39;31.43;;;16.73;;
26656;SDS011;14279;50.010;8.260;2023-02-15T09:59:12;36.37;;;17.23;;
26656;SDS011;14279;50.010;8.260;2023-02-15T10:01:45;30.60;;;16.97;;
26656;SDS011;14279;50.010;8.260;2023-02-15T10:07:08;29.60;;;16.97;;
26656;SDS011;14279;50.010;8.260;2023-02-15T10:10:19;35.60;;;17.50;;
26656;SDS011;14279;50.010;8.260;2023-02-15T10:13:36;37.70;;;18.50;;
26656;SDS011;14279;50.010;8.260;2023-02-15T10:16:01;37.87;;;20.20;;
26656;SDS011;14279;50.010;8.260;2023-02-15T10:18:42;37.73;;;18.67;;
26656;SDS011;14279;50.010;8.260;2023-02-15T10:21:19;35.57;;;18.00;;
26656;SDS011;14279;50.010;8.260;2023-02-15T10:24:06;34.50;;;17.57;;
26656;SDS011;14279;50.010;8.260;2023-02-15T10:26:50;33.33;;;17.27;;
26656;SDS011;14279;50.010;8.260;2023-02-15T10:29:30;29.87;;;16.33;;
26656;SDS011;14279;50.010;8.260;2023-02-15T10:34:38;35.30;;;17.80;;
26656;SDS011;14279;50.010;8.260;2023-02-15T10:37:13;36.80;;;19.73;;
26656;SDS011;14279;50.010;8.260;2023-02-15T10:42:51;34.70;;;18.07;;
26656;SDS011;14279;50.010;8.260;2023-02-15T10:45:45;30.53;;;17.50;;
26656;SDS011;14279;50.010;8.260;2023-02-15T10:51:33;28.23;;;16.70;;
26656;SDS011;14279;50.010;8.260;2023-02-15T11:07:43;24.47;;;14.70;;
26656;SDS011;14279;50.010;8.260;2023-02-15T11:12:49;32.07;;;16.27;;
26656;SDS011;14279;50.010;8.260;2023-02-15T11:15:18;29.17;;;16.27;;
26656;SDS011;14279;50.010;8.260;2023-02-15T11:17:51;32.00;;;17.63;;
26656;SDS011;14279;50.010;8.260;2023-02-15T11:20:29;28.57;;;15.80;;
26656;SDS011;14279;50.010;8.260;2023-02-15T11:23:06;29.53;;;16.43;;
26656;SDS011;14279;50.010;8.260;2023-02-15T11:25:41;27.73;;;15.93;;
26656;SDS011;14279;50.010;8.260;2023-02-15T11:28:11;31.43;;;18.00;;
26656;SDS011;14279;50.010;8.260;2023-02-15T11:30:48;26.73;;;16.00;;
26656;SDS011;14279;50.010;8.260;2023-02-15T11:33:20;30.97;;;17.53;;
26656;SDS011;14279;50.010;8.260;2023-02-15T11:35:58;30.37;;;17.60;;
26656;SDS011;14279;50.010;8.260;2023-02-15T11:38:28;34.00;;;18.77;;
26656;SDS011;14279;50.010;8.260;2023-02-15T11:40:58;29.87;;;16.80;;
26656;SDS011;14279;50.010;8.260;2023-02-15T11:45:54;32.67;;;18.13;;
26656;SDS011;14279;50.010;8.260;2023-02-15T11:48:19;38.07;;;19.53;;
26656;SDS011;14279;50.010;8.260;2023-02-15T11:50:45;34.50;;;18.63;;
26656;SDS011;14279;50.010;8.260;2023-02-15T11:53:17;37.50;;;20.43;;
26656;SDS011;14279;50.010;8.260;2023-02-15T11:55:46;37.10;;;19.90;;
26656;SDS011;14279;50.010;8.260;2023-02-15T12:01:10;40.33;;;19.67;;
26656;SDS011;14279;50.010;8.260;2023-02-15T12:03:43;36.57;;;19.80;;
26656;SDS011;14279;50.010;8.260;2023-02-15T12:06:25;36.40;;;20.10;;
26656;SDS011;14279;50.010;8.260;2023-02-15T12:09:38;39.73;;;19.73;;
26656;SDS011;14279;50.010;8.260;2023-02-15T12:11:54;37.73;;;20.10;;
26656;SDS011;14279;50.010;8.260;2023-02-15T12:14:54;37.90;;;19.03;;
26656;SDS011;14279;50.010;8.260;2023-02-15T12:17:31;32.37;;;18.87;;
26656;SDS011;14279;50.010;8.260;2023-02-15T12:20:00;33.40;;;18.83;;
26656;SDS011;14279;50.010;8.260;2023-02-15T12:22:29;35.90;;;19.30;;
26656;SDS011;14279;50.010;8.260;2023-02-15T12:25:02;39.50;;;20.57;;
26656;SDS011;14279;50.010;8.260;2023-02-15T12:27:30;35.17;;;19.37;;
26656;SDS011;14279;50.010;8.260;2023-02-15T12:30:01;37.47;;;19.57;;
26656;SDS011;14279;50.010;8.260;2023-02-15T12:32:46;36.37;;;18.17;;
26656;SDS011;14279;50.010;8.260;2023-02-15T12:35:22;30.50;;;17.50;;
26656;SDS011;14279;50.010;8.260;2023-02-15T12:37:57;34.20;;;19.97;;
26656;SDS011;14279;50.010;8.260;2023-02-15T12:40:28;30.03;;;16.77;;
26656;SDS011;14279;50.010;8.260;2023-02-15T12:42:54;31.43;;;19.20;;
26656;SDS011;14279;50.010;8.260;2023-02-15T12:50:35;25.20;;;16.03;;
26656;SDS011;14279;50.010;8.260;2023-02-15T12:53:08;30.00;;;18.07;;
26656;SDS011;14279;50.010;8.260;2023-02-15T12:55:37;28.50;;;17.23;;
26656;SDS011;14279;50.010;8.260;2023-02-15T13:00:45;32.03;;;19.83;;
26656;SDS011;14279;50.010;8.260;2023-02-15T13:03:18;25.30;;;17.63;;
26656;SDS011;14279;50.010;8.260;2023-02-15T13:05:46;36.40;;;20.57;;
26656;SDS011;14279;50.010;8.260;2023-02-15T13:08:17;29.53;;;18.67;;
26656;SDS011;14279;50.010;8.260;2023-02-15T13:10:59;30.07;;;18.03;;
26656;SDS011;14279;50.010;8.260;2023-02-15T13:13:26;30.57;;;19.20;;
26656;SDS011;14279;50.010;8.260;2023-02-15T13:15:55;31.50;;;18.03;;
26656;SDS011;14279;50.010;8.260;2023-02-15T13:18:28;32.53;;;18.77;;
26656;SDS011;14279;50.010;8.260;2023-02-15T13:20:56;27.13;;;16.03;;
26656;SDS011;14279;50.010;8.260;2023-02-15T13:23:29;31.00;;;19.40;;
26656;SDS011;14279;50.010;8.260;2023-02-15T13:25:57;25.87;;;17.67;;
26656;SDS011;14279;50.010;8.260;2023-02-15T13:28:25;29.10;;;17.70;;
26656;SDS011;14279;50.010;8.260;2023-02-15T13:30:59;27.87;;;17.00;;
26656;SDS011;14279;50.010;8.260;2023-02-15T13:33:34;28.40;;;18.00;;
26656;SDS011;14279;50.010;8.260;2023-02-15T13:38:46;27.03;;;17.20;;
26656;SDS011;14279;50.010;8.260;2023-02-15T13:41:20;29.77;;;17.73;;
26656;SDS011;14279;50.010;8.260;2023-02-15T13:43:55;30.17;;;16.90;;
26656;SDS011;14279;50.010;8.260;2023-02-15T13:46:25;28.17;;;17.13;;
26656;SDS011;14279;50.010;8.260;2023-02-15T13:51:43;36.07;;;21.00;;
26656;SDS011;14279;50.010;8.260;2023-02-15T14:08:11;36.57;;;21.00;;
26656;SDS011;14279;50.010;8.260;2023-02-15T14:13:39;31.60;;;20.63;;
26656;SDS011;14279;50.010;8.260;2023-02-15T14:16:30;34.80;;;20.53;;
26656;SDS011;14279;50.010;8.260;2023-02-15T14:19:13;30.10;;;18.97;;
26656;SDS011;14279;50.010;8.260;2023-02-15T14:21:58;32.60;;;19.33;;
26656;SDS011;14279;50.010;8.260;2023-02-15T14:24:33;29.13;;;18.30;;
26656;SDS011;14279;50.010;8.260;2023-02-15T14:27:04;34.57;;;19.53;;
26656;SDS011;14279;50.010;8.260;2023-02-15T14:29:42;34.63;;;20.17;;
26656;SDS011;14279;50.010;8.260;2023-02-15T14:32:26;34.27;;;20.97;;
26656;SDS011;14279;50.010;8.260;2023-02-15T14:34:58;34.87;;;20.57;;
26656;SDS011;14279;50.010;8.260;2023-02-15T14:37:35;33.67;;;19.90;;
26656;SDS011;14279;50.010;8.260;2023-02-15T14:43:19;35.40;;;20.57;;
26656;SDS011;14279;50.010;8.260;2023-02-15T14:48:33;33.57;;;21.03;;
26656;SDS011;14279;50.010;8.260;2023-02-15T14:51:10;37.07;;;22.50;;
26656;SDS011;14279;50.010;8.260;2023-02-15T14:56:42;35.27;;;20.50;;
26656;SDS011;14279;50.010;8.260;2023-02-15T15:01:36;35.40;;;22.10;;
26656;SDS011;14279;50.010;8.260;2023-02-15T15:04:04;41.97;;;22.17;;
26656;SDS011;14279;50.010;8.260;2023-02-15T15:06:34;35.23;;;22.00;;
26656;SDS011;14279;50.010;8.260;2023-02-15T15:09:10;40.63;;;24.17;;
26656;SDS011;14279;50.010;8.260;2023-02-15T15:11:46;34.13;;;21.17;;
26656;SDS011;14279;50.010;8.260;2023-02-15T15:14:59;37.30;;;22.50;;
26656;SDS011;14279;50.010;8.260;2023-02-15T15:17:00;35.83;;;22.13;;
26656;SDS011;14279;50.010;8.260;2023-02-15T15:22:17;36.87;;;22.90;;
26656;SDS011;14279;50.010;8.260;2023-02-15T15:24:46;38.93;;;22.77;;
26656;SDS011;14279;50.010;8.260;2023-02-15T15:32:46;37.43;;;24.13;;
26656;SDS011;14279;50.010;8.260;2023-02-15T15:35:17;41.37;;;25.10;;
26656;SDS011;14279;50.010;8.260;2023-02-15T15:49:02;40.10;;;23.33;;
26656;SDS011;14279;50.010;8.260;2023-02-15T15:51:33;41.90;;;25.67;;
26656;SDS011;14279;50.010;8.260;2023-02-15T15:54:01;43.67;;;27.80;;
26656;SDS011;14279;50.010;8.260;2023-02-15T15:56:30;47.97;;;26.37;;
26656;SDS011;14279;50.010;8.260;2023-02-15T15:58:59;42.40;;;25.93;;
26656;SDS011;14279;50.010;8.260;2023-02-15T16:01:29;39.53;;;25.77;;
26656;SDS011;14279;50.010;8.260;2023-02-15T16:03:57;44.10;;;25.77;;
26656;SDS011;14279;50.010;8.260;2023-02-15T16:06:27;44.27;;;25.93;;
26656;SDS011;14279;50.010;8.260;2023-02-15T16:11:58;43.40;;;25.60;;
26656;SDS011;14279;50.010;8.260;2023-02-15T16:14:30;52.53;;;27.53;;
26656;SDS011;14279;50.010;8.260;2023-02-15T16:17:00;48.63;;;26.97;;
26656;SDS011;14279;50.010;8.260;2023-02-15T16:19:38;44.63;;;25.80;;
26656;SDS011;14279;50.010;8.260;2023-02-15T16:22:10;51.13;;;27.27;;
26656;SDS011;14279;50.010;8.260;2023-02-15T16:30:20;41.37;;;24.83;;
26656;SDS011;14279;50.010;8.260;2023-02-15T16:33:04;47.00;;;28.57;;
26656;SDS011;14279;50.010;8.260;2023-02-15T16:35:32;45.13;;;26.27;;
26656;SDS011;14279;50.010;8.260;2023-02-15T16:37:58;52.77;;;29.30;;
26656;SDS011;14279;50.010;8.260;2023-02-15T16:42:50;47.57;;;28.47;;
26656;SDS011;14279;50.010;8.260;2023-02-15T16:45:19;46.77;;;26.63;;
26656;SDS011;14279;50.010;8.260;2023-02-15T16:47:48;48.90;;;29.03;;
26656;SDS011;14279;50.010;8.260;2023-02-15T16:53:06;53.40;;;29.83;;